Time;durP1;ratioP1;P1;durP2;ratioP2;P2;SDS_P1;SDS_P2;PMS_P1;PMS_P2;Temp;Humidity;BMP_temperature;BMP_pressure;BME280_temperature;BME280_humidity;BME280_pressure;Samples;Min_cycle;Max_cycle;Signal;HPM_P1;HPM_P2
2023/09/25 00:01:06;;;;;;;8.80;2.20;;;;;;;18.88;84.42;102215.84;5085560;28;20024;-70
2023/09/25 00:03:32;;;;;;;6.90;2.10;;;;;;;18.86;84.55;102220.69;5085052;28;20058;-71
2023/09/25 00:05:57;;;;;;;8.90;2.50;;;;;;;18.85;84.43;102220.91;5051479;28;20052;-71
2023/09/25 00:08:23;;;;;;;6.47;2.50;;;;;;;18.79;84.44;102206.25;5103543;28;20028;-71
2023/09/25 00:10:48;;;;;;;6.75;2.70;;;;;;;18.80;83.89;102212.53;5103309;28;20584;-71
2023/09/25 00:13:13;;;;;;;8.02;3.10;;;;;;;18.83;82.57;102209.38;5085074;28;20510;-71
2023/09/25 00:15:44;;;;;;;5.20;2.58;;;;;;;18.83;81.73;102215.66;5084606;28;20024;-70
2023/09/25 00:18:10;;;;;;;8.20;3.00;;;;;;;18.77;81.00;102192.00;5103212;28;20034;-70
2023/09/25 00:20:35;;;;;;;6.43;2.80;;;;;;;18.82;80.70;102199.53;5103267;28;20107;-71
2023/09/25 00:23:00;;;;;;;7.20;2.67;;;;;;;18.80;80.31;102199.75;5103088;28;20475;-70
2023/09/25 00:25:28;;;;;;;6.85;3.00;;;;;;;18.70;80.03;102189.28;5067931;28;20145;-70
2023/09/25 00:27:54;;;;;;;6.20;2.50;;;;;;;18.67;79.79;102197.91;5101571;28;20028;-70
2023/09/25 00:30:19;;;;;;;9.43;2.55;;;;;;;18.58;79.58;102188.31;5081505;28;20028;-70
2023/09/25 00:32:45;;;;;;;8.68;2.58;;;;;;;18.64;78.44;102183.88;5097333;28;20035;-71
2023/09/25 00:35:11;;;;;;;5.78;2.45;;;;;;;18.71;78.11;102193.69;5083760;28;20028;-70
2023/09/25 00:37:38;;;;;;;8.10;2.70;;;;;;;18.65;78.08;102180.94;5106250;28;20023;-70
2023/09/25 00:40:13;;;;;;;9.35;2.72;;;;;;;18.70;77.95;102183.81;5089868;28;20241;-71
2023/09/25 00:42:42;;;;;;;9.55;2.58;;;;;;;18.67;77.97;102186.97;5102677;28;20031;-71
2023/09/25 00:45:09;;;;;;;7.38;2.70;;;;;;;18.68;77.70;102193.31;5067545;28;20036;-70
2023/09/25 00:47:34;;;;;;;5.35;2.05;;;;;;;18.60;78.05;102179.91;5102807;28;20035;-71
2023/09/25 00:50:03;;;;;;;9.20;2.58;;;;;;;18.62;77.79;102184.09;5102082;28;20095;-70
2023/09/25 00:52:31;;;;;;;7.68;3.00;;;;;;;18.61;77.84;102182.44;5084497;28;20440;-71
2023/09/25 00:54:57;;;;;;;8.05;2.70;;;;;;;18.62;77.71;102175.91;5084230;28;20077;-70
2023/09/25 00:57:22;;;;;;;6.93;2.75;;;;;;;18.47;77.91;102153.56;5084285;28;20024;-71
2023/09/25 00:59:48;;;;;;;7.15;2.40;;;;;;;18.45;78.14;102161.97;5067298;28;20030;-71
2023/09/25 01:02:13;;;;;;;9.27;3.00;;;;;;;18.49;78.50;102170.56;5082031;28;20051;-71
2023/09/25 01:04:39;;;;;;;7.10;2.72;;;;;;;18.36;78.66;102152.38;5063361;28;20076;-70
2023/09/25 01:07:05;;;;;;;7.45;2.85;;;;;;;18.50;78.73;102170.31;5083181;28;20039;-70
2023/09/25 01:09:31;;;;;;;9.02;2.78;;;;;;;18.44;79.06;102178.53;5102342;28;20456;-71
2023/09/25 01:11:56;;;;;;;11.45;3.05;;;;;;;18.47;79.52;102178.09;5067243;28;20024;-71
2023/09/25 01:14:23;;;;;;;8.05;2.85;;;;;;;18.51;79.26;102172.00;5101613;28;20055;-71
2023/09/25 01:16:48;;;;;;;8.50;2.97;;;;;;;18.33;80.57;102173.78;5101830;28;20069;-71
2023/09/25 01:19:14;;;;;;;8.88;2.72;;;;;;;18.25;81.20;102170.25;5066294;28;20032;-71
2023/09/25 01:21:44;;;;;;;9.80;2.90;;;;;;;18.18;82.46;102165.88;5101650;28;20029;-71
2023/09/25 01:24:09;;;;;;;5.65;2.42;;;;;;;18.05;83.07;102161.34;5101489;28;20019;-71
2023/09/25 01:26:35;;;;;;;7.50;2.75;;;;;;;18.16;82.92;102170.72;5083296;28;20035;-71
2023/09/25 01:29:02;;;;;;;6.32;2.53;;;;;;;18.29;82.21;102165.22;5066298;28;20068;-71
2023/09/25 01:31:28;;;;;;;4.60;2.42;;;;;;;18.28;81.52;102149.91;5065486;28;20024;-71
2023/09/25 01:33:53;;;;;;;10.50;2.63;;;;;;;18.39;81.48;102160.13;5074701;28;20029;-71
2023/09/25 01:36:19;;;;;;;11.27;2.85;;;;;;;18.38;82.18;102154.91;5061713;28;20058;-71
2023/09/25 01:38:46;;;;;;;6.05;2.30;;;;;;;18.39;82.65;102156.56;5079832;28;20024;-71
2023/09/25 01:41:12;;;;;;;6.55;2.40;;;;;;;18.45;82.80;102156.53;5079055;28;20041;-71
2023/09/25 01:43:37;;;;;;;7.22;2.50;;;;;;;18.38;83.23;102144.84;5062030;28;20097;-71
2023/09/25 01:46:03;;;;;;;6.00;2.50;;;;;;;18.35;83.52;102141.72;5061772;28;20040;-71
2023/09/25 01:48:28;;;;;;;9.43;2.60;;;;;;;18.27;83.31;102138.16;5080446;28;20025;-71
2023/09/25 01:50:54;;;;;;;8.65;2.70;;;;;;;18.24;83.35;102135.88;5062892;28;20025;-71
2023/09/25 01:53:19;;;;;;;9.20;2.53;;;;;;;18.24;83.20;102132.31;5063239;28;20158;-71
2023/09/25 01:55:45;;;;;;;6.40;2.55;;;;;;;18.18;83.89;102135.91;5063472;28;20047;-71
2023/09/25 01:58:11;;;;;;;12.50;2.65;;;;;;;18.16;84.47;102136.13;5080771;28;20265;-71
2023/09/25 02:00:37;;;;;;;9.27;2.78;;;;;;;18.14;84.81;102127.31;5081413;28;20159;-71
2023/09/25 02:03:02;;;;;;;7.55;2.75;;;;;;;18.11;85.27;102119.59;5064009;28;20021;-71
2023/09/25 02:05:28;;;;;;;7.95;2.65;;;;;;;18.06;86.29;102122.16;5080950;28;20048;-71
2023/09/25 02:07:53;;;;;;;6.60;2.70;;;;;;;18.06;86.61;102120.25;5080582;28;20035;-71
2023/09/25 02:10:19;;;;;;;11.30;2.97;;;;;;;17.93;87.71;102114.03;5080334;28;20225;-71
2023/09/25 02:12:44;;;;;;;7.10;2.80;;;;;;;17.97;88.42;102126.16;5062736;28;20063;-71
2023/09/25 02:15:10;;;;;;;11.73;3.45;;;;;;;17.98;89.68;102127.81;5080813;28;20036;-71
2023/09/25 02:17:36;;;;;;;8.45;2.20;;;;;;;17.95;90.48;102111.94;5080897;28;20028;-71
2023/09/25 02:20:20;;;;;;;10.65;2.10;;;;;;;17.93;90.37;102103.13;5079249;28;20035;-71
2023/09/25 02:22:47;;;;;;;10.13;2.55;;;;;;;18.01;91.17;102121.94;5080544;28;20036;-71
2023/09/25 02:25:12;;;;;;;9.80;2.60;;;;;;;17.92;92.67;102117.81;5080656;28;20411;-71
2023/09/25 02:27:41;;;;;;;5.72;1.90;;;;;;;17.89;92.67;102120.97;5077928;28;20028;-71
2023/09/25 02:30:08;;;;;;;7.93;2.20;;;;;;;17.88;92.50;102122.00;5078266;28;20029;-71
2023/09/25 02:32:33;;;;;;;8.32;2.42;;;;;;;17.97;91.84;102128.88;5078872;28;20039;-71
2023/09/25 02:34:59;;;;;;;7.05;2.22;;;;;;;17.84;91.87;102121.59;5060974;28;20028;-71
2023/09/25 02:37:24;;;;;;;9.52;2.10;;;;;;;17.91;91.38;102130.56;5078153;28;20088;-70
2023/09/25 02:39:50;;;;;;;6.53;2.33;;;;;;;17.89;91.07;102124.53;5021828;28;20399;-71
2023/09/25 02:42:15;;;;;;;9.82;2.30;;;;;;;17.87;91.20;102126.63;5054791;28;20109;-71
2023/09/25 02:44:40;;;;;;;7.70;2.20;;;;;;;17.96;90.31;102113.59;5057015;28;20557;-71
2023/09/25 02:47:06;;;;;;;7.85;2.33;;;;;;;18.10;89.96;102136.16;5056210;28;20051;-71
2023/09/25 02:49:31;;;;;;;10.30;2.33;;;;;;;18.07;89.69;102130.09;5057300;28;20029;-71
2023/09/25 02:51:57;;;;;;;8.35;2.13;;;;;;;18.06;90.15;102124.88;5025103;28;20066;-70
2023/09/25 02:54:22;;;;;;;9.70;2.58;;;;;;;18.08;89.68;102133.66;5076296;28;20099;-71
2023/09/25 02:56:48;;;;;;;8.05;2.00;;;;;;;17.98;89.69;102111.47;5059961;28;20552;-71
2023/09/25 02:59:13;;;;;;;8.60;2.25;;;;;;;18.08;89.54;102129.06;5060146;28;20039;-71
2023/09/25 03:01:39;;;;;;;9.48;2.25;;;;;;;18.02;89.98;102135.38;5078194;28;20107;-71
2023/09/25 03:04:04;;;;;;;6.70;1.75;;;;;;;18.07;90.19;102123.81;5073198;28;20275;-71
2023/09/25 03:06:30;;;;;;;9.55;2.10;;;;;;;18.15;89.68;102128.19;5059089;28;20060;-71
2023/09/25 03:08:55;;;;;;;12.48;2.50;;;;;;;18.11;90.26;102119.59;5049399;28;20472;-71
2023/09/25 03:11:21;;;;;;;6.05;2.00;;;;;;;18.14;90.12;102127.31;5048994;28;20025;-71
2023/09/25 03:13:46;;;;;;;7.72;2.08;;;;;;;18.04;91.41;102108.72;5063687;28;20024;-71
2023/09/25 03:16:15;;;;;;;12.27;2.38;;;;;;;18.15;91.86;102123.56;5062759;28;20103;-71
2023/09/25 03:18:41;;;;;;;8.65;2.25;;;;;;;18.10;92.69;102117.94;5080948;28;20063;-72
2023/09/25 03:21:10;;;;;;;11.90;2.60;;;;;;;18.08;94.30;102126.34;5057345;28;20036;-71
2023/09/25 03:23:35;;;;;;;8.18;2.55;;;;;;;18.06;95.88;102112.09;5055626;28;20041;-71
2023/09/25 03:26:01;;;;;;;10.43;2.22;;;;;;;18.12;95.65;102121.28;5058222;28;20077;-71
2023/09/25 03:28:27;;;;;;;7.45;2.10;;;;;;;18.11;96.06;102129.66;5038850;28;20036;-71
2023/09/25 03:30:52;;;;;;;6.03;1.98;;;;;;;18.03;95.87;102098.91;5054920;28;20063;-71
2023/09/25 03:33:18;;;;;;;8.82;2.40;;;;;;;18.05;97.22;102125.94;5055199;28;20052;-71
2023/09/25 03:35:43;;;;;;;8.52;2.38;;;;;;;18.05;97.20;102134.94;5040700;28;20491;-71
2023/09/25 03:38:09;;;;;;;9.07;2.13;;;;;;;17.98;97.88;102123.25;5058281;28;20032;-71
2023/09/25 03:40:34;;;;;;;10.32;2.20;;;;;;;18.04;97.58;102129.69;5037259;28;20032;-71
2023/09/25 03:43:00;;;;;;;9.40;2.38;;;;;;;18.04;98.03;102127.78;5035394;28;20044;-71
2023/09/25 03:45:25;;;;;;;9.98;2.83;;;;;;;18.03;97.78;102128.03;5065395;28;20088;-71
2023/09/25 03:47:51;;;;;;;6.28;2.50;;;;;;;17.99;98.26;102132.25;5086541;28;20032;-71
2023/09/25 03:50:16;;;;;;;10.20;2.72;;;;;;;17.97;99.26;102143.34;5065837;28;20112;-71
2023/09/25 03:52:43;;;;;;;8.88;2.72;;;;;;;18.03;98.91;102133.47;5051700;28;20072;-71
2023/09/25 03:55:08;;;;;;;9.48;2.40;;;;;;;18.03;99.14;102136.19;5086378;28;20054;-71
2023/09/25 03:57:34;;;;;;;10.07;2.50;;;;;;;18.06;99.18;102142.03;5067694;28;20024;-71
2023/09/25 03:59:59;;;;;;;6.85;2.13;;;;;;;17.98;100.00;102138.72;5070287;28;20033;-71
2023/09/25 04:02:25;;;;;;;10.07;2.20;;;;;;;18.02;99.47;102134.53;5071048;28;20020;-72
2023/09/25 04:04:51;;;;;;;8.55;2.17;;;;;;;18.05;99.21;102132.22;5060522;28;20049;-71
2023/09/25 04:07:16;;;;;;;7.80;2.78;;;;;;;18.02;98.87;102110.03;5064023;28;20493;-71
2023/09/25 04:09:42;;;;;;;5.43;2.00;;;;;;;18.14;98.57;102121.88;5062751;28;20505;-72
2023/09/25 04:12:08;;;;;;;11.27;2.20;;;;;;;18.15;98.52;102120.03;5062340;28;20032;-71
2023/09/25 04:14:35;;;;;;;9.88;2.10;;;;;;;18.05;98.38;102096.81;5078640;28;20047;-71
2023/09/25 04:17:01;;;;;;;8.27;2.33;;;;;;;18.16;98.45;102110.78;5056606;28;20051;-72
2023/09/25 04:19:27;;;;;;;10.90;2.28;;;;;;;18.12;98.93;102121.28;5085931;28;20111;-71
2023/09/25 04:21:53;;;;;;;11.38;2.80;;;;;;;18.19;98.39;102124.81;5082688;28;20028;-71
2023/09/25 04:24:19;;;;;;;9.02;2.60;;;;;;;18.16;98.89;102121.69;5083289;28;20036;-71
2023/09/25 04:26:46;;;;;;;7.78;2.53;;;;;;;18.12;98.68;102106.84;5082978;28;20078;-72
2023/09/25 04:29:17;;;;;;;11.43;2.30;;;;;;;18.19;98.62;102119.34;5083264;28;20035;-70
2023/09/25 04:31:49;;;;;;;11.77;2.50;;;;;;;18.17;98.75;102116.00;5066766;28;20217;-71
2023/09/25 04:34:15;;;;;;;14.50;3.00;;;;;;;18.13;98.82;102114.78;5101183;28;20433;-71
2023/09/25 04:36:41;;;;;;;5.65;2.25;;;;;;;18.00;99.53;102096.59;5096562;28;20016;-70
2023/09/25 04:39:10;;;;;;;6.55;2.08;;;;;;;17.99;99.39;102083.22;5100199;28;20016;-70
2023/09/25 04:41:35;;;;;;;13.68;2.70;;;;;;;18.12;99.38;102101.38;5067160;28;20509;-71
2023/09/25 04:44:01;;;;;;;12.30;2.50;;;;;;;18.02;98.77;102085.50;5083442;28;20032;-71
2023/09/25 04:46:26;;;;;;;7.93;2.33;;;;;;;18.08;99.40;102104.53;5083400;28;20172;-73
2023/09/25 04:48:52;;;;;;;10.73;2.42;;;;;;;18.15;98.99;102100.94;5082983;28;20057;-71
2023/09/25 04:51:17;;;;;;;8.95;2.17;;;;;;;18.21;98.27;102106.38;5060988;28;20028;-71
2023/09/25 04:53:43;;;;;;;8.90;2.00;;;;;;;18.21;98.04;102108.22;5081904;28;20029;-70
2023/09/25 04:56:10;;;;;;;9.35;2.38;;;;;;;18.21;98.20;102111.81;5080619;28;20029;-70
2023/09/25 04:58:35;;;;;;;12.25;2.33;;;;;;;18.21;98.21;102119.13;5080481;28;20191;-70
2023/09/25 05:01:01;;;;;;;8.88;2.10;;;;;;;18.28;97.70;102109.88;5059634;28;20064;-70
2023/09/25 05:03:26;;;;;;;9.32;2.33;;;;;;;18.35;97.35;102117.19;5081456;28;20111;-71
2023/09/25 05:05:51;;;;;;;8.13;2.05;;;;;;;18.37;97.29;102113.16;5063221;28;20053;-71
2023/09/25 05:08:17;;;;;;;7.63;2.15;;;;;;;18.40;96.74;102110.00;5064120;28;20059;-71
2023/09/25 05:10:44;;;;;;;12.48;2.45;;;;;;;18.46;96.25;102109.13;5060879;28;20043;-71
2023/09/25 05:13:10;;;;;;;9.18;2.63;;;;;;;18.31;97.25;102086.81;5059969;28;20061;-70
2023/09/25 05:15:36;;;;;;;11.27;2.40;;;;;;;18.47;96.49;102079.97;5028758;28;20116;-71
2023/09/25 05:18:02;;;;;;;13.18;2.30;;;;;;;18.38;97.32;102079.44;5079549;28;20024;-72
2023/09/25 05:20:28;;;;;;;11.45;2.00;;;;;;;18.48;96.92;102078.94;5079813;28;20030;-73
2023/09/25 05:22:55;;;;;;;5.88;1.58;;;;;;;18.52;96.79;102074.72;5044826;28;20048;-73
2023/09/25 05:25:21;;;;;;;8.43;2.10;;;;;;;18.59;96.13;102072.75;5060715;28;20040;-72
2023/09/25 05:27:51;;;;;;;11.70;2.35;;;;;;;18.60;96.14;102063.53;5066903;28;20051;-72
2023/09/25 05:30:18;;;;;;;6.68;1.80;;;;;;;18.60;95.85;102058.06;5086053;28;20479;-72
2023/09/25 05:32:45;;;;;;;6.65;1.80;;;;;;;18.62;95.79;102058.69;5094867;28;20024;-71
2023/09/25 05:35:11;;;;;;;11.20;2.55;;;;;;;18.62;95.62;102064.16;5069218;28;20447;-71
2023/09/25 05:37:38;;;;;;;11.05;2.20;;;;;;;18.63;95.29;102054.91;5076599;28;20024;-71
2023/09/25 05:40:13;;;;;;;7.30;2.30;;;;;;;18.67;95.22;102083.38;5077299;28;20025;-71
2023/09/25 05:42:39;;;;;;;6.55;2.03;;;;;;;18.73;94.54;102066.16;5050789;28;20099;-71
2023/09/25 05:45:06;;;;;;;10.30;2.10;;;;;;;18.74;94.43;102070.59;5080096;28;20115;-71
2023/09/25 05:47:32;;;;;;;10.65;2.03;;;;;;;18.82;93.92;102074.09;5079339;28;20028;-71
2023/09/25 05:49:58;;;;;;;11.32;2.75;;;;;;;18.81;94.36;102072.41;5074793;28;20063;-71
2023/09/25 05:52:23;;;;;;;12.98;2.35;;;;;;;18.80;94.54;102070.75;5051843;28;20117;-72
2023/09/25 05:54:49;;;;;;;9.23;2.28;;;;;;;18.86;94.25;102061.66;5044014;28;20039;-71
2023/09/25 05:57:15;;;;;;;12.07;2.28;;;;;;;18.71;95.22;102051.09;5077359;28;20403;-71
2023/09/25 05:59:40;;;;;;;9.18;2.15;;;;;;;18.84;94.86;102063.78;5075700;28;20031;-71
2023/09/25 06:02:07;;;;;;;9.20;2.03;;;;;;;18.94;93.97;102053.19;5061384;28;20070;-71
2023/09/25 06:04:37;;;;;;;11.35;2.17;;;;;;;18.93;94.42;102055.09;5045034;28;20584;-71
2023/09/25 06:07:06;;;;;;;9.90;2.03;;;;;;;19.02;93.85;102066.56;5057801;28;20077;-72
2023/09/25 06:09:33;;;;;;;9.95;2.28;;;;;;;19.00;94.11;102060.47;5059016;28;20032;-72
2023/09/25 06:11:59;;;;;;;7.25;1.90;;;;;;;18.96;94.13;102060.09;5079212;28;20036;-71
2023/09/25 06:14:25;;;;;;;9.93;2.13;;;;;;;19.01;94.03;102067.63;5069876;28;20025;-71
2023/09/25 06:16:54;;;;;;;10.55;2.30;;;;;;;19.02;94.13;102061.09;5064492;28;20020;-72
2023/09/25 06:19:20;;;;;;;9.45;2.20;;;;;;;19.05;93.80;102060.66;5078327;28;20056;-71
2023/09/25 06:21:47;;;;;;;7.25;2.13;;;;;;;19.18;92.97;102065.13;5079537;28;20032;-71
2023/09/25 06:24:12;;;;;;;9.98;2.15;;;;;;;19.13;93.42;102068.53;5060921;28;20029;-71
2023/09/25 06:26:46;;;;;;;15.18;2.30;;;;;;;19.05;94.05;102059.81;5075258;28;20025;-71
2023/09/25 06:29:12;;;;;;;12.13;2.40;;;;;;;19.15;93.52;102066.41;5077334;28;20028;-71
2023/09/25 06:31:38;;;;;;;10.60;2.20;;;;;;;19.19;92.79;102047.69;5079278;28;20050;-71
2023/09/25 06:34:07;;;;;;;10.85;2.92;;;;;;;19.16;93.45;102062.63;5078336;28;20558;-71
2023/09/25 06:36:37;;;;;;;8.65;2.22;;;;;;;19.22;92.97;102053.53;5077829;28;20123;-71
2023/09/25 06:39:08;;;;;;;11.25;2.47;;;;;;;19.18;93.04;102051.50;5068958;28;20021;-71
2023/09/25 06:41:34;;;;;;;10.80;2.17;;;;;;;19.22;93.00;102056.25;5087777;28;20047;-71
2023/09/25 06:43:59;;;;;;;7.88;2.17;;;;;;;19.19;92.69;102056.72;5072952;28;20039;-71
2023/09/25 06:46:25;;;;;;;7.53;2.30;;;;;;;19.15;93.40;102071.88;5071187;28;20482;-71
2023/09/25 06:48:51;;;;;;;7.93;2.10;;;;;;;19.13;93.18;102070.44;5061412;28;20115;-71
2023/09/25 06:51:17;;;;;;;9.93;2.05;;;;;;;19.22;92.73;102080.00;5047468;28;20031;-71
2023/09/25 06:53:43;;;;;;;13.90;2.50;;;;;;;19.24;92.75;102080.63;5084678;28;20028;-71
2023/09/25 06:56:10;;;;;;;11.35;2.38;;;;;;;19.31;92.20;102066.91;5062321;28;20020;-71
2023/09/25 06:58:36;;;;;;;10.73;2.20;;;;;;;19.29;91.96;102058.09;5086434;28;20028;-71
2023/09/25 07:01:02;;;;;;;12.23;2.00;;;;;;;19.34;91.78;102048.16;5043900;28;20074;-71
2023/09/25 07:03:27;;;;;;;9.13;2.10;;;;;;;19.28;92.13;102032.69;5077745;28;20052;-71
2023/09/25 07:05:53;;;;;;;8.07;2.05;;;;;;;19.37;91.29;102041.41;5042598;28;20052;-71
2023/09/25 07:08:18;;;;;;;9.05;2.22;;;;;;;19.31;91.70;102050.53;5077572;28;20479;-71
2023/09/25 07:10:46;;;;;;;8.85;2.17;;;;;;;19.24;91.24;102029.59;5043231;28;20037;-70
2023/09/25 07:13:11;;;;;;;9.05;2.20;;;;;;;19.34;91.38;102028.25;5077815;28;20032;-71
2023/09/25 07:15:38;;;;;;;10.25;2.03;;;;;;;19.24;91.80;102032.31;5043593;28;20033;-71
2023/09/25 07:18:04;;;;;;;10.20;2.42;;;;;;;19.32;91.86;102038.53;5060734;28;20091;-70
2023/09/25 07:20:30;;;;;;;8.05;2.30;;;;;;;19.28;91.91;102026.41;5077798;28;20509;-71
2023/09/25 07:22:55;;;;;;;9.23;2.30;;;;;;;19.38;91.33;102033.00;5076766;28;20092;-71
2023/09/25 07:25:20;;;;;;;10.38;2.15;;;;;;;19.42;91.36;102036.09;5061761;28;20032;-71
2023/09/25 07:27:46;;;;;;;16.30;2.60;;;;;;;19.28;91.91;102023.69;5077368;28;20029;-70
2023/09/25 07:30:12;;;;;;;6.38;1.80;;;;;;;19.48;91.29;102046.13;5076192;28;20101;-70
2023/09/25 07:32:39;;;;;;;11.70;2.30;;;;;;;19.51;90.79;102051.13;5076173;28;20036;-71
2023/09/25 07:35:07;;;;;;;8.45;1.95;;;;;;;19.45;91.35;102038.38;5075965;28;20082;-71
2023/09/25 07:37:33;;;;;;;7.72;2.10;;;;;;;19.58;91.07;102059.22;5077589;28;20107;-71
2023/09/25 07:39:59;;;;;;;12.57;2.33;;;;;;;19.64;90.80;102067.38;5077923;28;20075;-71
2023/09/25 07:42:24;;;;;;;10.02;2.28;;;;;;;19.68;90.52;102046.72;5063445;28;20028;-70
2023/09/25 07:44:49;;;;;;;11.75;2.25;;;;;;;19.63;90.34;102062.09;5079497;28;20111;-71
2023/09/25 07:47:17;;;;;;;11.23;2.45;;;;;;;19.75;89.79;102056.75;5062630;28;20159;-71
2023/09/25 07:49:45;;;;;;;8.73;2.05;;;;;;;19.63;90.09;102065.69;5079277;28;20372;-71
2023/09/25 07:52:15;;;;;;;11.18;1.88;;;;;;;19.83;88.89;102059.16;5065123;28;20031;-71
2023/09/25 07:54:45;;;;;;;11.63;1.90;;;;;;;19.89;88.27;102066.41;5063378;28;20558;-70
2023/09/25 07:57:14;;;;;;;9.57;2.10;;;;;;;19.86;87.67;102058.69;5091094;28;20502;-71
2023/09/25 07:59:40;;;;;;;7.85;1.98;;;;;;;19.94;87.59;102055.66;5080933;28;20039;-71
2023/09/25 08:02:07;;;;;;;8.80;2.30;;;;;;;19.89;87.15;102060.97;5061349;28;20055;-71
2023/09/25 08:04:34;;;;;;;10.15;2.67;;;;;;;19.64;86.79;102007.31;5064002;28;20052;-71
2023/09/25 08:07:00;;;;;;;9.70;2.08;;;;;;;20.15;86.23;102057.84;5060510;28;20746;-71
2023/09/25 08:09:26;;;;;;;9.73;2.17;;;;;;;20.18;86.13;102068.31;5054788;28;20036;-71
2023/09/25 08:11:52;;;;;;;14.93;2.65;;;;;;;20.19;86.40;102069.97;5040929;28;20041;-71
2023/09/25 08:14:17;;;;;;;9.85;2.20;;;;;;;20.32;85.65;102059.94;5057821;28;20033;-71
2023/09/25 08:16:42;;;;;;;9.48;1.92;;;;;;;20.36;85.62;102074.78;5069226;28;20078;-71
2023/09/25 08:19:08;;;;;;;9.27;1.95;;;;;;;20.44;85.43;102071.72;5085752;28;20032;-71
2023/09/25 08:21:34;;;;;;;11.70;2.42;;;;;;;20.46;85.21;102061.38;5060754;28;20071;-71
2023/09/25 08:24:00;;;;;;;8.70;2.17;;;;;;;20.49;84.83;102055.44;5080224;28;20100;-70
2023/09/25 08:26:25;;;;;;;10.40;2.15;;;;;;;20.55;84.10;102049.06;5080234;28;20087;-71
2023/09/25 08:28:51;;;;;;;13.10;2.78;;;;;;;20.60;83.89;102049.22;5059952;28;20037;-71
2023/09/25 08:31:16;;;;;;;8.82;2.15;;;;;;;20.74;82.87;102032.56;5043597;28;20040;-71
2023/09/25 08:33:42;;;;;;;10.07;2.08;;;;;;;20.69;82.97;102032.44;5077344;28;20031;-70
2023/09/25 08:36:10;;;;;;;9.93;2.30;;;;;;;20.80;82.27;102017.94;5078665;28;20487;-70
2023/09/25 08:38:36;;;;;;;9.20;2.10;;;;;;;20.84;81.97;102019.13;5072354;28;20025;-71
2023/09/25 08:41:02;;;;;;;6.45;1.95;;;;;;;20.82;82.21;102002.94;5066971;28;20024;-71
2023/09/25 08:43:28;;;;;;;7.50;2.00;;;;;;;20.92;82.10;102023.41;5054984;28;20077;-71
2023/09/25 08:45:55;;;;;;;11.35;2.80;;;;;;;21.03;81.16;102023.41;5055737;28;20089;-71
2023/09/25 08:48:20;;;;;;;8.07;2.20;;;;;;;21.06;80.69;102020.19;5056135;28;20037;-71
2023/09/25 08:50:48;;;;;;;10.88;2.00;;;;;;;21.03;80.66;102023.41;5059648;28;20044;-71
2023/09/25 08:53:14;;;;;;;8.00;2.00;;;;;;;20.94;80.67;102026.75;5079026;28;20020;-71
2023/09/25 08:55:40;;;;;;;7.18;2.08;;;;;;;20.97;80.58;102010.69;5059129;28;20024;-71
2023/09/25 08:58:10;;;;;;;9.73;2.53;;;;;;;20.87;80.39;102019.47;5062545;28;20024;-71
2023/09/25 09:00:36;;;;;;;10.75;2.00;;;;;;;20.91;80.00;102024.47;5076179;28;20063;-70
2023/09/25 09:03:02;;;;;;;10.35;2.33;;;;;;;20.84;80.35;102025.44;5062940;28;20483;-71
2023/09/25 09:05:27;;;;;;;8.82;2.28;;;;;;;20.99;79.68;102029.56;5062533;28;20075;-71
2023/09/25 09:07:59;;;;;;;6.95;1.70;;;;;;;21.00;79.21;102028.53;5061928;28;20021;-71
2023/09/25 09:10:30;;;;;;;10.38;2.10;;;;;;;20.97;78.45;102035.31;5062782;28;20028;-71
2023/09/25 09:12:57;;;;;;;10.93;2.10;;;;;;;20.95;78.49;102037.44;5061219;28;20052;-71
2023/09/25 09:15:26;;;;;;;9.65;1.90;;;;;;;21.04;77.64;102035.19;5045199;28;20078;-71
2023/09/25 09:17:52;;;;;;;7.75;2.30;;;;;;;21.13;76.91;102027.44;5080270;28;20082;-71
2023/09/25 09:20:17;;;;;;;9.25;1.80;;;;;;;21.31;75.90;102041.81;5045935;28;20036;-71
2023/09/25 09:22:52;;;;;;;8.60;1.88;;;;;;;21.53;74.70;102047.50;5061132;28;20502;-71
2023/09/25 09:25:27;;;;;;;6.90;1.70;;;;;;;21.67;73.28;102044.50;5046006;28;20127;-71
2023/09/25 09:27:52;;;;;;;13.05;1.70;;;;;;;21.92;72.57;102039.53;5060178;28;20559;-71
2023/09/25 09:30:23;;;;;;;8.43;2.00;;;;;;;21.99;72.08;102033.91;5059744;28;20082;-70
2023/09/25 09:32:52;;;;;;;7.00;1.75;;;;;;;22.18;71.47;102035.34;5060997;28;20025;-71
2023/09/25 09:35:25;;;;;;;8.27;1.90;;;;;;;22.12;71.15;102027.25;5078597;28;20033;-71
2023/09/25 09:37:55;;;;;;;9.90;2.13;;;;;;;22.17;70.75;102013.69;5070156;28;20035;-71
2023/09/25 09:40:26;;;;;;;7.65;1.90;;;;;;;22.36;70.47;102028.81;5070841;28;20036;-71
2023/09/25 09:42:53;;;;;;;10.05;2.22;;;;;;;22.27;70.31;102035.78;5061941;28;20741;-70
2023/09/25 09:45:20;;;;;;;10.13;2.03;;;;;;;22.15;70.38;102026.75;5059862;28;20036;-70
2023/09/25 09:47:48;;;;;;;7.18;2.00;;;;;;;22.05;70.95;102039.22;5059642;28;20436;-71
2023/09/25 09:50:18;;;;;;;5.15;1.80;;;;;;;21.97;70.41;102025.06;5080176;28;20058;-70
2023/09/25 09:52:45;;;;;;;7.50;2.03;;;;;;;21.88;70.78;102018.31;5059508;28;20024;-70
2023/09/25 09:55:14;;;;;;;9.23;1.70;;;;;;;22.04;70.32;102034.81;5047660;28;20032;-71
2023/09/25 09:57:39;;;;;;;8.70;1.77;;;;;;;21.91;70.77;102026.88;5075889;28;20036;-71
2023/09/25 10:00:07;;;;;;;9.80;1.80;;;;;;;21.77;71.42;102020.03;5078532;28;20028;-71
2023/09/25 10:02:33;;;;;;;7.30;1.50;;;;;;;21.92;71.12;102025.81;5060845;28;20435;-71
2023/09/25 10:04:59;;;;;;;9.93;1.70;;;;;;;22.10;70.49;102023.94;5044405;28;20060;-71
2023/09/25 10:07:26;;;;;;;7.97;1.92;;;;;;;22.22;70.43;102025.56;5075606;28;20398;-70
2023/09/25 10:10:04;;;;;;;8.32;2.30;;;;;;;22.21;70.28;102006.63;5068419;28;20035;-71
2023/09/25 10:12:49;;;;;;;8.32;1.73;;;;;;;22.13;71.23;102012.50;5080420;28;20078;-72
2023/09/25 10:15:17;;;;;;;;;;;;;;;22.02;71.08;102016.97;5051021;28;20027;-71
2023/09/25 10:17:45;;;;;;;10.45;2.10;;;;;;;21.85;71.48;101994.97;5072452;28;19912;-71
2023/09/25 10:20:30;;;;;;;7.43;1.80;;;;;;;21.95;71.26;102014.38;5065376;28;20028;-71
2023/09/25 10:23:20;;;;;;;10.05;2.22;;;;;;;21.83;71.75;102007.28;5090200;28;20020;-71
2023/09/25 10:25:55;;;;;;;5.55;1.67;;;;;;;21.94;71.31;102009.94;5061065;28;20032;-72
2023/09/25 10:28:38;;;;;;;7.30;2.03;;;;;;;21.88;70.91;102010.94;5060642;28;20036;-71
2023/09/25 10:31:17;;;;;;;9.70;1.67;;;;;;;21.80;70.89;102008.59;5074154;28;20135;-71
2023/09/25 10:33:54;;;;;;;8.35;2.00;;;;;;;21.74;70.90;101993.13;5073323;28;20677;-71
2023/09/25 10:36:19;;;;;;;10.13;1.85;;;;;;;21.64;71.03;101982.81;5077094;28;20035;-72
2023/09/25 10:38:52;;;;;;;11.35;1.67;;;;;;;21.55;71.92;102001.53;5074087;28;20025;-71
2023/09/25 10:41:18;;;;;;;9.52;2.22;;;;;;;21.63;72.38;102007.72;5084674;28;20040;-71
2023/09/25 10:43:44;;;;;;;11.25;2.50;;;;;;;21.56;73.37;102005.13;5070808;28;20043;-71
2023/09/25 10:46:10;;;;;;;11.10;3.35;;;;;;;21.63;73.77;102008.53;5042425;28;20024;-72
2023/09/25 10:48:35;;;;;;;6.30;1.90;;;;;;;21.70;73.51;102002.91;5074010;28;20174;-71
2023/09/25 10:51:01;;;;;;;9.73;2.35;;;;;;;21.71;73.82;102016.34;5085709;28;20107;-71
2023/09/25 10:53:26;;;;;;;9.00;1.92;;;;;;;21.69;73.92;102012.19;5085507;28;20029;-71
2023/09/25 10:55:53;;;;;;;11.10;2.60;;;;;;;21.79;73.72;102001.47;5069070;28;20138;-73
2023/09/25 10:58:20;;;;;;;13.70;2.20;;;;;;;21.53;74.14;102000.13;5052700;28;20024;-73
2023/09/25 11:00:47;;;;;;;9.98;2.20;;;;;;;21.60;74.53;102019.97;5083421;28;20032;-72
2023/09/25 11:03:12;;;;;;;6.82;2.05;;;;;;;21.54;74.47;102020.94;5063414;28;20050;-72
2023/09/25 11:05:39;;;;;;;9.15;2.25;;;;;;;21.36;74.71;101994.59;5073339;28;20414;-71
2023/09/25 11:08:13;;;;;;;10.38;2.38;;;;;;;21.46;74.78;102019.44;5081827;28;20392;-71
2023/09/25 11:10:40;;;;;;;5.88;1.80;;;;;;;21.39;74.65;102002.31;5070801;28;20036;-71
2023/09/25 11:13:05;;;;;;;8.50;2.08;;;;;;;21.34;75.01;101978.38;5074926;28;20032;-71
2023/09/25 11:15:38;;;;;;;8.70;1.90;;;;;;;21.37;75.20;102018.16;5063084;28;20059;-71
2023/09/25 11:18:10;;;;;;;9.73;2.20;;;;;;;21.45;74.71;102009.53;5078451;28;20055;-72
2023/09/25 11:20:37;;;;;;;7.70;2.10;;;;;;;21.58;73.85;102006.50;5081804;28;20038;-71